createdAt,value
2018-11-20T00:01:19.811Z,29.92
2018-11-20T00:04:29.058Z,26.55
2018-11-20T00:07:31.323Z,25.32
2018-11-20T00:10:40.657Z,24.20
2018-11-20T00:13:42.185Z,29.23
2018-11-20T00:16:51.569Z,25.72
2018-11-20T00:19:53.691Z,24.20
2018-11-20T00:23:03.071Z,23.47
2018-11-20T00:26:05.220Z,27.20
2018-11-20T00:28:55.605Z,28.40
2018-11-20T00:32:05.373Z,21.25
2018-11-20T00:35:07.201Z,24.07
2018-11-20T00:38:09.500Z,28.85
2018-11-20T00:41:18.901Z,22.17
2018-11-20T00:44:26.616Z,25.75
2018-11-20T00:50:38.323Z,24.27
2018-11-20T00:53:39.786Z,24.63
2018-11-20T00:57:08.186Z,24.30
2018-11-20T01:00:10.130Z,26.00
2018-11-20T01:03:19.467Z,27.15
2018-11-20T01:06:21.160Z,28.95
2018-11-20T01:09:30.521Z,23.27
2018-11-20T01:12:32.208Z,24.60
2018-11-20T01:15:25.369Z,29.25
2018-11-20T01:18:34.717Z,24.87
2018-11-20T01:21:36.163Z,23.52
2018-11-20T01:27:47.416Z,24.07
2018-11-20T01:30:48.911Z,27.98
2018-11-20T01:33:50.863Z,26.37
2018-11-20T01:37:00.211Z,21.37
2018-11-20T01:40:01.870Z,28.77
2018-11-20T01:43:11.252Z,23.83
2018-11-20T01:46:13.171Z,21.52
2018-11-20T01:49:22.620Z,28.92
2018-11-20T01:52:21.324Z,25.50
2018-11-20T01:55:30.658Z,28.50
2018-11-20T01:58:32.287Z,28.40
2018-11-20T02:01:41.639Z,23.05
2018-11-20T02:04:43.249Z,23.80
2018-11-20T02:07:52.641Z,26.12
2018-11-20T02:11:00.258Z,23.73
2018-11-20T02:14:29.712Z,24.77
2018-11-20T02:17:34.687Z,24.18
2018-11-20T02:20:45.161Z,31.73
2018-11-20T02:23:50.473Z,22.70
2018-11-20T02:26:40.891Z,24.92
2018-11-20T02:29:48.996Z,20.97
2018-11-20T02:32:46.373Z,23.87
2018-11-20T02:35:50.068Z,22.90
2018-11-20T02:38:59.315Z,26.75
2018-11-20T02:42:02.211Z,25.80
2018-11-20T02:45:11.564Z,32.38
2018-11-20T02:48:13.056Z,26.82
2018-11-20T02:51:03.390Z,20.77
2018-11-20T02:56:56.963Z,26.30
2018-11-20T03:00:01.672Z,27.37
2018-11-20T03:03:11.112Z,21.77
2018-11-20T03:06:06.887Z,30.48
2018-11-20T03:09:16.186Z,24.72
2018-11-20T03:12:06.562Z,24.90
2018-11-20T03:15:15.933Z,23.92
2018-11-20T03:18:17.340Z,20.75
2018-11-20T03:21:26.778Z,20.68
2018-11-20T03:24:17.973Z,25.60
2018-11-20T03:27:08.452Z,21.52
2018-11-20T03:33:41.293Z,23.40
2018-11-20T03:36:34.372Z,25.95
2018-11-20T03:39:36.725Z,26.20
2018-11-20T03:42:27.095Z,27.10
2018-11-20T03:45:22.548Z,24.10
2018-11-20T03:48:11.975Z,24.92
2018-11-20T03:51:01.117Z,22.55
2018-11-20T03:53:54.306Z,23.47
2018-11-20T03:56:43.269Z,22.82
2018-11-20T03:59:32.569Z,26.12
2018-11-20T04:02:56.054Z,21.80
2018-11-20T04:05:41.740Z,24.77
2018-11-20T04:08:29.804Z,19.92
2018-11-20T04:11:23.324Z,29.48
2018-11-20T04:14:11.489Z,20.82
2018-11-20T04:17:18.971Z,26.07
2018-11-20T04:20:06.934Z,24.25
2018-11-20T04:22:56.220Z,24.47
2018-11-20T04:25:48.536Z,21.82
2018-11-20T04:28:24.976Z,24.23
2018-11-20T04:32:08.143Z,22.07
2018-11-20T04:34:43.887Z,24.75
2018-11-20T04:37:31.842Z,22.62
2018-11-20T04:40:33.625Z,25.85
2018-11-20T04:43:21.408Z,21.87
2018-11-20T04:46:14.149Z,24.63
2018-11-20T04:49:02.201Z,26.42
2018-11-20T04:51:52.169Z,23.75
2018-11-20T04:54:40.109Z,22.65
2018-11-20T04:57:38.096Z,20.85
2018-11-20T05:00:40.610Z,24.72
2018-11-20T05:03:31.592Z,20.77
2018-11-20T05:06:29.675Z,21.82
2018-11-20T05:09:17.269Z,24.02
2018-11-20T05:12:09.414Z,25.95
2018-11-20T05:14:57.507Z,19.95
2018-11-20T05:17:55.820Z,23.62
2018-11-20T05:20:49.305Z,27.75
2018-11-20T05:23:54.987Z,27.75
2018-11-20T05:26:42.788Z,21.33
2018-11-20T05:29:40.805Z,26.12
2018-11-20T05:32:33.073Z,27.00
2018-11-20T05:35:25.222Z,20.30
2018-11-20T05:38:24.135Z,24.52
2018-11-20T05:41:12.044Z,19.65
2018-11-20T05:43:56.120Z,25.90
2018-11-20T05:46:46.455Z,26.55
2018-11-20T05:49:41.420Z,26.37
2018-11-20T05:52:36.301Z,21.27
2018-11-20T05:55:29.282Z,22.15
2018-11-20T05:58:12.628Z,25.00
2018-11-20T06:01:00.741Z,23.67
2018-11-20T06:03:44.698Z,21.00
2018-11-20T06:06:32.623Z,24.63
2018-11-20T06:09:19.984Z,26.45
2018-11-20T06:12:08.027Z,27.93
2018-11-20T06:15:09.385Z,19.75
2018-11-20T06:18:10.502Z,24.10
2018-11-20T06:20:58.365Z,25.02
2018-11-20T06:23:38.471Z,22.67
2018-11-20T06:26:26.545Z,20.75
2018-11-20T06:29:14.568Z,24.57
2018-11-20T06:32:09.671Z,24.72
2018-11-20T06:34:54.262Z,23.25
2018-11-20T06:37:48.441Z,25.43
2018-11-20T06:40:46.650Z,33.98
2018-11-20T06:43:47.857Z,24.70
2018-11-20T06:46:40.411Z,21.45
2018-11-20T06:49:35.192Z,27.37
2018-11-20T06:52:23.122Z,25.62
2018-11-20T06:55:12.260Z,25.10
2018-11-20T06:57:59.291Z,22.80
2018-11-20T07:00:44.973Z,23.15
2018-11-20T07:03:40.077Z,22.37
2018-11-20T07:06:27.852Z,21.37
2018-11-20T07:09:14.558Z,27.50
2018-11-20T07:12:04.133Z,34.03
2018-11-20T07:14:57.543Z,26.97
2018-11-20T07:17:52.488Z,20.82
2018-11-20T07:20:42.052Z,22.10
2018-11-20T07:23:30.088Z,23.27
2018-11-20T07:26:19.817Z,25.02
2018-11-20T07:29:07.537Z,25.43
2018-11-20T07:31:55.306Z,22.50
2018-11-20T07:34:43.496Z,25.88
2018-11-20T07:37:41.530Z,29.18
2018-11-20T07:40:18.457Z,26.45
2018-11-20T07:42:55.554Z,27.82
2018-11-20T07:45:51.502Z,35.78
2018-11-20T07:48:45.951Z,27.75
2018-11-20T07:51:44.498Z,30.43
2018-11-20T07:54:27.520Z,29.25
2018-11-20T07:57:19.582Z,34.70
2018-11-20T08:00:14.967Z,31.87
2018-11-20T08:03:02.435Z,33.75
2018-11-20T08:05:51.580Z,34.03
2018-11-20T08:08:43.705Z,33.05
2018-11-20T08:11:29.254Z,31.00
2018-11-20T08:14:06.806Z,32.42
2018-11-20T08:16:55.901Z,33.60
2018-11-20T08:19:39.013Z,35.13
2018-11-20T08:22:19.063Z,34.98
2018-11-20T08:24:57.354Z,35.48
2018-11-20T08:27:53.115Z,34.53
2018-11-20T08:30:39.952Z,28.23
2018-11-20T08:33:35.249Z,34.33
2018-11-20T08:36:34.050Z,29.77
2018-11-20T08:39:40.518Z,35.10
2018-11-20T08:42:21.137Z,34.00
2018-11-20T08:45:10.276Z,43.05
2018-11-20T08:47:53.563Z,32.00
2018-11-20T08:50:42.743Z,39.63
2018-11-20T08:53:35.776Z,32.48
2018-11-20T08:56:23.813Z,32.88
2018-11-20T08:59:22.410Z,38.67
2018-11-20T09:02:17.782Z,34.90
2018-11-20T09:05:22.498Z,39.80
2018-11-20T09:08:20.499Z,30.43
2018-11-20T09:11:08.490Z,32.08
2018-11-20T09:13:57.874Z,31.52
2018-11-20T09:16:50.211Z,31.10
2018-11-20T09:19:32.038Z,34.50
2018-11-20T09:22:33.441Z,33.75
2018-11-20T09:25:20.839Z,43.55
2018-11-20T09:28:22.139Z,34.40
2018-11-20T09:31:09.742Z,36.48
2018-11-20T09:33:48.606Z,32.08
2018-11-20T09:36:43.762Z,36.60
2018-11-20T09:39:32.900Z,33.10
2018-11-20T09:42:20.639Z,33.23
2018-11-20T09:45:41.620Z,32.03
2018-11-20T09:48:28.032Z,34.30
2018-11-20T09:51:09.745Z,33.70
2018-11-20T09:53:58.124Z,33.10
2018-11-20T09:56:46.165Z,33.38
2018-11-20T09:59:34.099Z,33.75
2018-11-20T10:02:25.924Z,34.60
2018-11-20T10:05:22.115Z,29.85
2018-11-20T10:08:08.822Z,33.58
2018-11-20T10:11:07.073Z,32.85
2018-11-20T10:13:54.954Z,38.58
2018-11-20T10:16:37.973Z,33.85
2018-11-20T10:19:22.127Z,30.10
2018-11-20T10:22:13.995Z,30.37
2018-11-20T10:24:59.468Z,27.17
2018-11-20T10:27:49.052Z,30.75
2018-11-20T10:30:32.490Z,33.88
2018-11-20T10:33:20.667Z,36.00
2018-11-20T10:36:00.349Z,28.75
2018-11-20T10:38:58.509Z,30.90
2018-11-20T10:41:50.077Z,32.53
2018-11-20T10:44:48.311Z,30.92
2018-11-20T10:47:41.102Z,29.42
2018-11-20T10:50:30.254Z,30.43
2018-11-20T10:53:07.908Z,31.93
2018-11-20T10:55:56.142Z,27.17
2018-11-20T10:58:44.190Z,29.10
2018-11-20T11:01:32.196Z,38.67
2018-11-20T11:04:30.154Z,30.50
2018-11-20T11:07:19.628Z,28.77
2018-11-20T11:09:58.793Z,24.02
2018-11-20T11:12:47.060Z,28.47
2018-11-20T11:15:29.504Z,32.60
2018-11-20T11:18:23.300Z,26.93
2018-11-20T11:21:16.523Z,27.58
2018-11-20T11:24:00.469Z,23.90
2018-11-20T11:27:01.717Z,33.73
2018-11-20T11:29:52.477Z,29.35
2018-11-20T11:32:50.824Z,25.80
2018-11-20T11:35:48.275Z,27.58
2018-11-20T11:38:39.904Z,31.65
2018-11-20T11:41:37.325Z,28.15
2018-11-20T11:44:35.284Z,26.23
2018-11-20T11:47:23.044Z,22.82
2018-11-20T11:50:09.957Z,22.15
2018-11-20T11:52:58.580Z,21.15
2018-11-20T11:55:47.791Z,30.75
2018-11-20T11:58:40.866Z,24.72
2018-11-20T12:04:44.199Z,24.67
2018-11-20T12:07:48.465Z,21.40
2018-11-20T12:10:46.769Z,28.70
2018-11-20T12:13:41.687Z,24.02
2018-11-20T12:16:36.339Z,24.07
2018-11-20T12:19:24.170Z,22.48
2018-11-20T12:22:09.579Z,25.65
2018-11-20T12:25:01.540Z,30.48
2018-11-20T12:28:05.899Z,23.00
2018-11-20T12:31:02.303Z,20.95
2018-11-20T12:33:50.363Z,21.85
2018-11-20T12:36:45.242Z,26.27
2018-11-20T12:39:40.792Z,24.00
2018-11-20T12:42:38.642Z,21.52
2018-11-20T12:45:26.087Z,22.73
2018-11-20T12:48:27.098Z,26.55
2018-11-20T12:51:15.114Z,21.50
2018-11-20T12:54:10.267Z,25.20
2018-11-20T12:57:14.639Z,25.65
2018-11-20T13:00:09.921Z,22.05
2018-11-20T13:02:57.969Z,24.77
2018-11-20T13:05:59.522Z,28.23
2018-11-20T13:08:47.866Z,21.15
2018-11-20T13:11:37.685Z,25.10
2018-11-20T13:14:32.555Z,21.37
2018-11-20T13:17:11.274Z,21.90
2018-11-20T13:20:05.830Z,22.15
2018-11-20T13:22:55.929Z,18.73
2018-11-20T13:25:44.030Z,17.90
2018-11-20T13:28:32.428Z,18.37
2018-11-20T13:31:20.080Z,17.70
2018-11-20T13:34:08.069Z,19.85
2018-11-20T13:37:09.748Z,20.08
2018-11-20T13:39:55.332Z,15.95
2018-11-20T13:42:48.057Z,24.95
2018-11-20T13:45:36.718Z,20.70
2018-11-20T13:48:24.449Z,15.10
2018-11-20T13:51:19.459Z,17.82
2018-11-20T13:54:17.374Z,17.37
2018-11-20T13:56:57.683Z,15.13
2018-11-20T13:59:44.113Z,20.08
2018-11-20T14:02:41.980Z,19.32
2018-11-20T14:05:30.182Z,18.05
2018-11-20T14:08:20.174Z,14.38
2018-11-20T14:11:18.983Z,13.65
2018-11-20T14:14:14.110Z,17.82
2018-11-20T14:17:01.822Z,14.28
2018-11-20T14:19:57.078Z,15.15
2018-11-20T14:22:44.873Z,15.68
2018-11-20T14:25:44.032Z,14.83
2018-11-20T14:28:20.979Z,13.70
2018-11-20T14:31:08.737Z,17.37
2018-11-20T14:33:56.719Z,13.78
2018-11-20T14:36:45.853Z,20.12
2018-11-20T14:39:33.786Z,23.75
2018-11-20T14:42:20.639Z,16.65
2018-11-20T14:45:09.750Z,14.18
2018-11-20T14:47:59.524Z,13.75
2018-11-20T14:50:47.936Z,16.20
2018-11-20T14:53:34.692Z,21.55
2018-11-20T14:56:22.859Z,19.52
2018-11-20T14:59:30.519Z,17.85
2018-11-20T15:02:25.365Z,16.73
2018-11-20T15:05:23.592Z,17.60
2018-11-20T15:08:11.857Z,17.57
2018-11-20T15:11:03.875Z,18.65
2018-11-20T15:13:51.828Z,19.50
2018-11-20T15:16:49.970Z,15.48
2018-11-20T15:19:38.049Z,14.28
2018-11-20T15:22:27.175Z,15.03
2018-11-20T15:25:06.935Z,13.10
2018-11-20T15:27:48.336Z,21.23
2018-11-20T15:30:37.812Z,17.27
2018-11-20T15:33:16.747Z,12.50
2018-11-20T15:36:08.827Z,14.30
2018-11-20T15:39:00.779Z,18.35
2018-11-20T15:41:41.968Z,12.58
2018-11-20T15:44:27.794Z,15.38
2018-11-20T15:47:15.713Z,17.25
2018-11-20T15:50:03.380Z,17.98
2018-11-20T15:53:04.733Z,15.98
2018-11-20T15:56:05.816Z,16.73
2018-11-20T15:58:54.798Z,20.37
2018-11-20T16:01:46.927Z,18.23
2018-11-20T16:04:27.205Z,20.40
2018-11-20T16:07:23.742Z,22.25
2018-11-20T16:10:06.552Z,20.17
2018-11-20T16:12:55.717Z,22.20
2018-11-20T16:15:40.882Z,22.05
2018-11-20T16:18:26.194Z,19.02
2018-11-20T16:21:18.181Z,18.65
2018-11-20T16:24:07.366Z,17.55
2018-11-20T16:26:56.567Z,15.85
2018-11-20T16:29:45.735Z,16.62
2018-11-20T16:32:41.252Z,16.25
2018-11-20T16:35:29.501Z,17.02
2018-11-20T16:38:17.314Z,17.37
2018-11-20T16:41:09.208Z,13.55
2018-11-20T16:43:51.334Z,20.75
2018-11-20T16:46:38.223Z,17.85
2018-11-20T16:49:42.786Z,17.27
2018-11-20T16:52:38.031Z,16.48
2018-11-20T16:55:27.156Z,17.85
2018-11-20T16:58:17.646Z,18.07
2018-11-20T17:01:10.626Z,17.82
2018-11-20T17:04:02.615Z,15.90
2018-11-20T17:06:57.333Z,17.50
2018-11-20T17:09:45.034Z,14.60
2018-11-20T17:12:32.100Z,16.77
2018-11-20T17:15:27.514Z,16.45
2018-11-20T17:18:22.528Z,18.10
2018-11-20T17:21:17.457Z,14.78
2018-11-20T17:24:08.345Z,17.27
2018-11-20T17:26:56.224Z,16.25
2018-11-20T17:30:00.786Z,16.77
2018-11-20T17:32:49.597Z,19.42
2018-11-20T17:35:44.173Z,16.02
2018-11-20T17:38:32.152Z,17.30
2018-11-20T17:41:19.831Z,15.80
2018-11-20T17:44:02.512Z,19.00
2018-11-20T17:46:51.805Z,19.30
2018-11-20T17:49:46.849Z,19.67
2018-11-20T17:52:30.718Z,17.00
2018-11-20T17:55:25.629Z,13.40
2018-11-20T17:58:13.267Z,18.27
2018-11-20T18:01:00.941Z,17.37
2018-11-20T18:03:50.097Z,15.93
2018-11-20T18:06:38.117Z,15.83
2018-11-20T18:09:25.944Z,17.90
2018-11-20T18:12:30.154Z,19.80
2018-11-20T18:15:17.892Z,18.45
2018-11-20T18:18:25.513Z,20.35
2018-11-20T18:21:13.750Z,19.92
2018-11-20T18:24:01.927Z,35.50
2018-11-20T18:26:54.107Z,20.35
2018-11-20T18:29:34.859Z,30.40
2018-11-20T18:32:20.659Z,25.10
2018-11-20T18:35:22.038Z,18.27
2018-11-20T18:38:10.222Z,21.65
2018-11-20T18:41:11.528Z,20.43
2018-11-20T18:44:06.068Z,24.47
2018-11-20T18:47:01.226Z,19.82
2018-11-20T18:49:49.493Z,31.05
2018-11-20T18:52:32.161Z,30.37
2018-11-20T18:55:39.597Z,26.97
2018-11-20T18:58:18.732Z,22.40
2018-11-20T19:01:26.009Z,30.23
2018-11-20T19:04:15.248Z,19.07
2018-11-20T19:07:23.098Z,21.73
2018-11-20T19:10:11.613Z,22.62
2018-11-20T19:13:05.299Z,25.57
2018-11-20T19:15:53.081Z,39.55
2018-11-20T19:18:41.168Z,34.38
2018-11-20T19:21:31.228Z,41.68
2018-11-20T19:24:24.225Z,32.35
2018-11-20T19:27:22.657Z,31.65
2018-11-20T19:30:11.818Z,24.47
2018-11-20T19:33:04.059Z,20.30
2018-11-20T19:35:51.961Z,23.65
2018-11-20T19:38:39.914Z,21.52
2018-11-20T19:41:33.443Z,29.75
2018-11-20T19:44:21.220Z,25.65
2018-11-20T19:47:09.449Z,27.10
2018-11-20T19:50:04.837Z,36.70
2018-11-20T19:52:57.145Z,29.10
2018-11-20T19:56:05.044Z,25.02
2018-11-20T19:58:49.367Z,26.85
2018-11-20T20:01:44.557Z,30.40
2018-11-20T20:04:32.969Z,28.80
2018-11-20T20:07:21.374Z,32.25
2018-11-20T20:10:17.484Z,40.50
2018-11-20T20:12:58.621Z,30.97
2018-11-20T20:15:46.159Z,32.40
2018-11-20T20:18:34.382Z,32.03
2018-11-20T20:21:15.463Z,31.68
2018-11-20T20:24:03.427Z,34.75
2018-11-20T20:26:51.217Z,32.25
2018-11-20T20:29:39.601Z,31.35
2018-11-20T20:32:28.850Z,31.93
2018-11-20T20:35:16.565Z,32.08
2018-11-20T20:38:08.380Z,36.33
2018-11-20T20:40:59.793Z,38.35
2018-11-20T20:43:48.951Z,45.03
2018-11-20T20:46:46.999Z,39.23
2018-11-20T20:49:46.470Z,42.35
2018-11-20T20:52:34.386Z,31.60
2018-11-20T20:55:22.607Z,37.03
2018-11-20T20:58:17.343Z,38.02
2018-11-20T21:01:05.404Z,36.77
2018-11-20T21:03:50.383Z,39.73
2018-11-20T21:06:57.869Z,37.03
2018-11-20T21:09:45.879Z,34.95
2018-11-20T21:12:23.151Z,36.10
2018-11-20T21:15:02.313Z,38.65
2018-11-20T21:17:54.109Z,34.95
2018-11-20T21:20:42.041Z,36.03
2018-11-20T21:23:34.080Z,37.42
2018-11-20T21:26:21.893Z,35.52
2018-11-20T21:29:08.512Z,33.80
2018-11-20T21:32:06.321Z,38.15
2018-11-20T21:34:55.271Z,35.85
2018-11-20T21:37:42.326Z,26.30
2018-11-20T21:40:30.386Z,31.05
2018-11-20T21:43:25.698Z,30.17
2018-11-20T21:46:14.867Z,25.52
2018-11-20T21:49:03.026Z,27.73
2018-11-20T21:51:50.692Z,29.90
2018-11-20T21:54:42.518Z,29.70
2018-11-20T21:57:24.381Z,28.92
2018-11-20T22:00:22.217Z,31.15
2018-11-20T22:03:14.606Z,27.10
2018-11-20T22:06:11.741Z,31.95
2018-11-20T22:08:51.033Z,26.57
2018-11-20T22:11:39.097Z,28.60
2018-11-20T22:14:31.972Z,37.15
2018-11-20T22:17:23.819Z,26.42
2018-11-20T22:20:11.907Z,26.48
2018-11-20T22:23:16.397Z,27.40
2018-11-20T22:26:04.582Z,32.73
2018-11-20T22:29:12.113Z,30.48
2018-11-20T22:32:07.692Z,25.43
2018-11-20T22:35:05.761Z,24.52
2018-11-20T22:37:45.118Z,24.35
2018-11-20T22:40:47.486Z,24.20
2018-11-20T22:43:41.578Z,33.48
2018-11-20T22:46:28.173Z,39.50
2018-11-20T22:49:12.666Z,31.15
2018-11-20T22:52:00.355Z,29.30
2018-11-20T22:54:58.778Z,28.30
2018-11-20T22:57:50.861Z,27.60
2018-11-20T23:00:39.322Z,28.35
2018-11-20T23:03:31.238Z,31.25
2018-11-20T23:06:13.545Z,27.58
2018-11-20T23:08:43.660Z,26.07
2018-11-20T23:11:13.839Z,24.05
2018-11-20T23:13:43.969Z,31.07
2018-11-20T23:16:14.138Z,33.90
2018-11-20T23:18:44.237Z,30.50
2018-11-20T23:21:16.591Z,29.77
2018-11-20T23:23:46.988Z,30.20
2018-11-20T23:26:17.116Z,31.05
2018-11-20T23:28:47.421Z,29.27
2018-11-20T23:31:17.628Z,25.68
2018-11-20T23:33:47.839Z,25.40
2018-11-20T23:36:17.949Z,27.45
2018-11-20T23:38:48.102Z,26.65
2018-11-20T23:41:18.222Z,30.88
2018-11-20T23:43:48.414Z,22.48
2018-11-20T23:46:18.658Z,27.07
2018-11-20T23:48:48.817Z,30.97
2018-11-20T23:51:18.954Z,25.95
2018-11-20T23:53:49.203Z,27.02
2018-11-20T23:56:19.330Z,25.52
2018-11-20T23:58:49.512Z,24.90
